createdAt,value
2018-03-14T00:00:32.732Z,29.4
2018-03-14T00:01:21.793Z,30.1
2018-03-14T00:02:12.011Z,30.2
2018-03-14T00:03:02.184Z,29.6
2018-03-14T00:03:54.437Z,29.3
2018-03-14T00:04:43.009Z,28.9
2018-03-14T00:05:33.381Z,28.7
2018-03-14T00:06:22.834Z,28.5
2018-03-14T00:07:16.858Z,28.3
2018-03-14T00:08:02.043Z,28.1
2018-03-14T00:08:53.639Z,27.9
2018-03-14T00:09:42.978Z,27.7
2018-03-14T00:10:32.262Z,27.5
2018-03-14T00:11:21.886Z,27.4
2018-03-14T00:12:12.850Z,27.2
2018-03-14T00:13:06.006Z,27
2018-03-14T00:13:53.440Z,26.8
2018-03-14T00:14:43.328Z,26.7
2018-03-14T00:15:33.108Z,26.5
2018-03-14T00:16:24.847Z,26.3
2018-03-14T00:17:13.309Z,26.2
2018-03-14T00:18:03.061Z,26.1
2018-03-14T00:18:53.127Z,25.9
2018-03-14T00:19:44.218Z,25.7
2018-03-14T00:20:34.462Z,25.6
2018-03-14T00:21:23.647Z,25.9
2018-03-14T00:22:14.923Z,26.8
2018-03-14T00:23:04.875Z,27.6
2018-03-14T00:23:54.127Z,28.3
2018-03-14T00:24:43.357Z,28.9
2018-03-14T00:25:37.430Z,29.6
2018-03-14T00:26:23.698Z,30.3
2018-03-14T00:27:14.968Z,30
2018-03-14T00:28:04.495Z,29.5
2018-03-14T00:28:54.380Z,29.1
2018-03-14T00:29:44.727Z,28.9
2018-03-14T00:30:34.937Z,28.6
2018-03-14T00:31:23.002Z,28.4
2018-03-14T00:32:15.862Z,28.3
2018-03-14T00:33:04.194Z,28.1
2018-03-14T00:33:55.346Z,27.9
2018-03-14T00:34:47.275Z,27.7
2018-03-14T00:35:35.003Z,27.5
2018-03-14T00:36:25.769Z,27.3
2018-03-14T00:37:13.662Z,27.2
2018-03-14T00:38:04.934Z,27
2018-03-14T00:38:54.858Z,26.8
2018-03-14T00:39:45.175Z,26.6
2018-03-14T00:40:37.330Z,26.5
2018-03-14T00:41:26.804Z,26.3
2018-03-14T00:42:16.287Z,26.1
2018-03-14T00:43:06.037Z,26
2018-03-14T00:44:00.651Z,25.8
2018-03-14T00:44:47.033Z,25.7
2018-03-14T00:45:36.488Z,25.7
2018-03-14T00:46:26.176Z,26.1
2018-03-14T00:47:19.005Z,26.9
2018-03-14T00:48:07.222Z,27.8
2018-03-14T00:48:57.569Z,28.4
2018-03-14T00:49:48.601Z,29.1
2018-03-14T00:50:37.062Z,29.8
2018-03-14T00:51:27.764Z,30.3
2018-03-14T00:52:18.369Z,29.8
2018-03-14T00:53:12.411Z,29.4
2018-03-14T00:53:58.508Z,29
2018-03-14T00:54:48.041Z,28.8
2018-03-14T00:55:38.288Z,28.5
2018-03-14T00:56:29.016Z,28.3
2018-03-14T00:57:18.466Z,28.1
2018-03-14T00:58:06.576Z,27.9
2018-03-14T00:58:56.860Z,27.8
2018-03-14T00:59:47.813Z,27.6
2018-03-14T01:00:36.671Z,27.4
2018-03-14T01:01:27.813Z,27.3
2018-03-14T01:02:19.834Z,27.1
2018-03-14T01:03:07.773Z,26.9
2018-03-14T01:03:58.306Z,26.7
2018-03-14T01:04:46.359Z,26.6
2018-03-14T01:05:37.055Z,26.4
2018-03-14T01:06:27.798Z,26.3
2018-03-14T01:07:16.980Z,26.1
2018-03-14T01:08:06.892Z,25.9
2018-03-14T01:08:57.152Z,25.8
2018-03-14T01:09:46.936Z,25.6
2018-03-14T01:10:38.362Z,25.7
2018-03-14T01:11:28.235Z,26.3
2018-03-14T01:12:16.625Z,27.2
2018-03-14T01:13:06.857Z,27.9
2018-03-14T01:13:57.405Z,28.6
2018-03-14T01:14:47.191Z,29.2
2018-03-14T01:15:38.185Z,29.8
2018-03-14T01:16:28.510Z,30.4
2018-03-14T01:17:18.482Z,29.8
2018-03-14T01:18:06.554Z,29.4
2018-03-14T01:18:58.161Z,29.1
2018-03-14T01:19:48.307Z,28.8
2018-03-14T01:20:37.397Z,28.6
2018-03-14T01:21:28.519Z,28.4
2018-03-14T01:22:18.219Z,28.2
2018-03-14T01:23:08.510Z,28
2018-03-14T01:24:47.082Z,27.6
2018-03-14T01:25:38.505Z,27.4
2018-03-14T01:26:29.279Z,27.3
2018-03-14T01:27:18.905Z,27.1
2018-03-14T01:28:08.229Z,26.9
2018-03-14T01:28:58.376Z,26.8
2018-03-14T01:29:51.089Z,26.6
2018-03-14T01:30:38.963Z,26.4
2018-03-14T01:31:30.036Z,26.3
2018-03-14T01:32:20.188Z,26.1
2018-03-14T01:33:09.026Z,25.9
2018-03-14T01:33:59.231Z,25.8
2018-03-14T01:34:48.494Z,25.7
2018-03-14T01:35:41.798Z,25.7
2018-03-14T01:36:28.630Z,26.3
2018-03-14T01:37:18.091Z,27.1
2018-03-14T01:39:00.081Z,28.4
2018-03-14T01:39:49.303Z,29.1
2018-03-14T01:40:39.940Z,29.8
2018-03-14T01:41:29.408Z,30.4
2018-03-14T01:42:19.639Z,29.9
2018-03-14T01:43:09.185Z,29.4
2018-03-14T01:43:59.898Z,29.1
2018-03-14T01:44:50.730Z,28.9
2018-03-14T01:45:40.010Z,28.6
2018-03-14T01:46:30.973Z,28.4
2018-03-14T01:47:20.347Z,28.2
2018-03-14T01:48:14.095Z,28.1
2018-03-14T01:49:51.122Z,27.7
2018-03-14T01:50:40.232Z,27.5
2018-03-14T01:51:30.095Z,27.3
2018-03-14T01:52:20.520Z,27.1
2018-03-14T01:53:10.491Z,26.9
2018-03-14T01:54:02.086Z,26.8
2018-03-14T01:54:50.522Z,26.6
2018-03-14T01:55:40.150Z,26.4
2018-03-14T01:56:30.675Z,26.3
2018-03-14T01:57:20.965Z,26.1
2018-03-14T01:58:11.210Z,26
2018-03-14T01:59:01.937Z,25.8
2018-03-14T01:59:51.077Z,25.7
2018-03-14T02:00:41.980Z,25.8
2018-03-14T02:01:31.242Z,26.3
2018-03-14T02:02:20.513Z,27.1
2018-03-14T02:03:12.972Z,27.9
2018-03-14T02:04:01.372Z,28.6
2018-03-14T02:04:50.461Z,29.2
2018-03-14T02:05:40.901Z,29.8
2018-03-14T02:06:31.989Z,30.3
2018-03-14T02:07:21.841Z,29.7
2018-03-14T02:08:11.490Z,29.3
2018-03-14T02:09:00.588Z,28.9
2018-03-14T02:09:51.690Z,28.7
2018-03-14T02:10:41.909Z,28.5
2018-03-14T02:11:31.935Z,28.3
2018-03-14T02:12:24.577Z,28.1
2018-03-14T02:13:11.631Z,27.9
2018-03-14T02:14:01.523Z,27.7
2018-03-14T02:14:51.898Z,27.5
2018-03-14T02:15:41.153Z,27.3
2018-03-14T02:16:32.268Z,27.1
2018-03-14T02:17:21.985Z,27
2018-03-14T02:18:13.328Z,26.8
2018-03-14T02:19:02.646Z,26.6
2018-03-14T02:19:53.267Z,26.5
2018-03-14T02:20:42.763Z,26.3
2018-03-14T02:21:35.039Z,26.2
2018-03-14T02:22:22.045Z,26
2018-03-14T02:23:11.483Z,25.8
2018-03-14T02:24:02.466Z,25.7
2018-03-14T02:24:53.315Z,25.7
2018-03-14T02:25:43.846Z,26
2018-03-14T02:26:33.535Z,26.9
2018-03-14T02:27:26.295Z,27.7
2018-03-14T02:28:14.195Z,28.4
2018-03-14T02:29:03.649Z,29.1
2018-03-14T02:29:53.742Z,29.7
2018-03-14T02:30:49.793Z,30.4
2018-03-14T02:31:35.538Z,29.9
2018-03-14T02:32:24.992Z,29.5
2018-03-14T02:33:15.347Z,29.1
2018-03-14T02:34:05.130Z,28.9
2018-03-14T02:34:55.095Z,28.6
2018-03-14T02:35:45.810Z,28.4
2018-03-14T02:36:38.675Z,28.2
2018-03-14T02:37:25.646Z,28
2018-03-14T02:39:06.091Z,27.6
2018-03-14T02:39:59.865Z,27.4
2018-03-14T02:40:45.955Z,27.3
2018-03-14T02:41:34.847Z,27.1
2018-03-14T02:42:23.780Z,26.9
2018-03-14T02:43:14.100Z,26.8
2018-03-14T02:44:03.571Z,26.6
2018-03-14T02:44:53.791Z,26.4
2018-03-14T02:45:44.245Z,26.3
2018-03-14T02:46:33.946Z,26.1
2018-03-14T02:47:24.180Z,26
2018-03-14T02:48:14.953Z,25.8
2018-03-14T02:49:03.825Z,25.6
2018-03-14T02:49:53.844Z,25.7
2018-03-14T02:50:44.731Z,26.3
2018-03-14T02:51:34.201Z,27.2
2018-03-14T02:52:25.784Z,27.9
2018-03-14T02:53:15.239Z,28.6
2018-03-14T02:54:04.561Z,29.2
2018-03-14T02:54:54.216Z,29.9
2018-03-14T02:55:45.065Z,30.2
2018-03-14T02:56:34.909Z,29.6
2018-03-14T02:57:26.292Z,29.3
2018-03-14T02:58:14.706Z,28.9
2018-03-14T02:59:06.164Z,28.6
2018-03-14T02:59:55.644Z,28.4
2018-03-14T03:00:46.019Z,28.3
2018-03-14T03:01:34.856Z,28
2018-03-14T03:02:24.361Z,27.9
2018-03-14T03:03:14.926Z,27.6
2018-03-14T03:04:05.475Z,27.5
2018-03-14T03:04:55.898Z,27.3
2018-03-14T03:05:45.616Z,27.1
2018-03-14T03:06:35.191Z,27
2018-03-14T03:07:26.169Z,26.8
2018-03-14T03:08:15.288Z,26.6
2018-03-14T03:09:06.283Z,26.4
2018-03-14T03:09:55.862Z,26.3
2018-03-14T03:10:45.875Z,26.1
2018-03-14T03:11:35.733Z,26
2018-03-14T03:12:25.987Z,25.8
2018-03-14T03:13:16.113Z,25.6
2018-03-14T03:14:06.637Z,25.6
2018-03-14T03:14:55.910Z,25.9
2018-03-14T03:15:46.330Z,26.8
2018-03-14T03:16:36.457Z,27.6
2018-03-14T03:17:27.485Z,28.3
2018-03-14T03:18:16.587Z,28.9
2018-03-14T03:19:06.223Z,29.5
2018-03-14T03:19:57.669Z,30.2
2018-03-14T03:20:48.050Z,30.1
2018-03-14T03:21:37.299Z,29.6
2018-03-14T03:22:26.897Z,29.3
2018-03-14T03:23:17.194Z,28.9
2018-03-14T03:24:07.005Z,28.7
2018-03-14T03:24:57.200Z,28.5
2018-03-14T03:25:47.275Z,28.3
2018-03-14T03:26:36.987Z,28.1
2018-03-14T03:27:26.872Z,27.9
2018-03-14T03:28:17.749Z,27.7
2018-03-14T03:29:06.980Z,27.6
2018-03-14T03:29:57.819Z,27.4
2018-03-14T03:30:48.045Z,27.2
2018-03-14T03:31:38.716Z,27
2018-03-14T03:32:27.969Z,26.8
2018-03-14T03:33:17.855Z,26.7
2018-03-14T03:34:08.296Z,26.6
2018-03-14T03:34:57.468Z,26.4
2018-03-14T03:35:48.141Z,26.3
2018-03-14T03:36:37.744Z,26.1
2018-03-14T03:37:27.934Z,25.9
2018-03-14T03:38:18.173Z,25.7
2018-03-14T03:39:07.965Z,25.6
2018-03-14T03:39:58.320Z,25.8
2018-03-14T03:40:48.478Z,26.5
2018-03-14T03:41:39.216Z,27.3
2018-03-14T03:42:29.085Z,28.1
2018-03-14T03:43:18.859Z,28.7
2018-03-14T03:44:08.530Z,29.3
2018-03-14T03:44:58.229Z,30
2018-03-14T03:45:48.162Z,30.3
2018-03-14T03:46:38.318Z,29.6
2018-03-14T03:47:28.379Z,29.3
2018-03-14T03:48:18.243Z,28.9
2018-03-14T03:49:08.466Z,28.7
2018-03-14T03:49:59.954Z,28.4
2018-03-14T03:50:49.760Z,28.2
2018-03-14T03:51:40.670Z,28.1
2018-03-14T03:52:28.745Z,27.9
2018-03-14T03:53:17.935Z,27.7
2018-03-14T03:54:09.056Z,27.6
2018-03-14T03:55:00.211Z,27.4
2018-03-14T03:55:49.187Z,27.2
2018-03-14T03:56:39.868Z,27
2018-03-14T03:57:28.805Z,26.8
2018-03-14T03:58:20.195Z,26.7
2018-03-14T03:59:09.745Z,26.5
2018-03-14T03:59:59.715Z,26.4
2018-03-14T04:00:50.814Z,26.2
2018-03-14T04:01:39.030Z,26
2018-03-14T04:02:29.678Z,25.9
2018-03-14T04:03:20.567Z,25.7
2018-03-14T04:04:10.647Z,25.6
2018-03-14T04:05:00.248Z,25.7
2018-03-14T04:05:50.746Z,26.5
2018-03-14T04:06:40.468Z,27.3
2018-03-14T04:07:30.892Z,28
2018-03-14T04:08:20.780Z,28.7
2018-03-14T04:09:10.900Z,29.3
2018-03-14T04:10:01.080Z,29.9
2018-03-14T04:10:50.256Z,30.4
2018-03-14T04:11:40.569Z,29.8
2018-03-14T04:12:29.947Z,29.4
2018-03-14T04:13:20.560Z,29.1
2018-03-14T04:14:11.106Z,28.8
2018-03-14T04:15:00.219Z,28.6
2018-03-14T04:15:51.124Z,28.4
2018-03-14T04:16:41.589Z,28.2
2018-03-14T04:17:30.748Z,28
2018-03-14T04:19:12.527Z,27.6
2018-03-14T04:20:02.840Z,27.5
2018-03-14T04:20:52.592Z,27.3
2018-03-14T04:21:42.435Z,27.1
2018-03-14T04:22:32.725Z,26.9
2018-03-14T04:23:23.292Z,26.8
2018-03-14T04:24:13.382Z,26.6
2018-03-14T04:25:02.641Z,26.5
2018-03-14T04:25:52.834Z,26.3
2018-03-14T04:26:42.685Z,26.1
2018-03-14T04:27:33.355Z,25.9
2018-03-14T04:28:23.633Z,25.8
2018-03-14T04:29:13.172Z,25.7
2018-03-14T04:30:03.226Z,25.7
2018-03-14T04:30:52.710Z,26.1
2018-03-14T04:31:42.726Z,26.9
2018-03-14T04:32:33.151Z,27.7
2018-03-14T04:33:23.494Z,28.4
2018-03-14T04:34:13.790Z,29
2018-03-14T04:35:03.894Z,29.6
2018-03-14T04:35:53.099Z,30.3
2018-03-14T04:36:44.002Z,29.9
2018-03-14T04:37:33.568Z,29.4
2018-03-14T04:38:23.073Z,29.1
2018-03-14T04:39:13.898Z,28.8
2018-03-14T04:40:02.846Z,28.5
2018-03-14T04:40:53.788Z,28.3
2018-03-14T04:41:43.839Z,28.1
2018-03-14T04:42:34.391Z,27.9
2018-03-14T04:43:24.740Z,27.8
2018-03-14T04:44:13.957Z,27.6
2018-03-14T04:45:04.579Z,27.4
2018-03-14T04:45:54.394Z,27.3
2018-03-14T04:46:44.698Z,27.1
2018-03-14T04:47:35.083Z,26.9
2018-03-14T04:48:24.502Z,26.7
2018-03-14T04:49:14.067Z,26.6
2018-03-14T04:50:03.417Z,26.4
2018-03-14T04:50:52.921Z,26.3
2018-03-14T04:51:43.929Z,26.1
2018-03-14T04:52:34.694Z,25.9
2018-03-14T04:53:22.884Z,25.8
2018-03-14T04:54:13.749Z,25.6
2018-03-14T04:55:04.012Z,25.7
2018-03-14T04:55:54.193Z,26.3
2018-03-14T04:56:43.480Z,27.1
2018-03-14T04:58:24.414Z,28.4
2018-03-14T04:59:13.852Z,29.1
2018-03-14T05:00:04.289Z,29.7
2018-03-14T05:00:54.286Z,30.4
2018-03-14T05:01:43.693Z,29.9
2018-03-14T05:02:34.132Z,29.4
2018-03-14T05:03:23.906Z,29.1
2018-03-14T05:04:14.471Z,28.9
2018-03-14T05:05:04.694Z,28.6
2018-03-14T05:05:54.659Z,28.4
2018-03-14T05:06:44.207Z,28.2
2018-03-14T05:07:33.940Z,28
2018-03-14T05:09:14.671Z,27.7
2018-03-14T05:10:04.599Z,27.5
2018-03-14T05:10:55.681Z,27.3
2018-03-14T05:11:45.256Z,27.1
2018-03-14T05:12:35.270Z,27
2018-03-14T05:13:25.131Z,26.8
2018-03-14T05:14:15.796Z,26.6
2018-03-14T05:15:19.934Z,26.4
2018-03-14T05:15:55.536Z,26.3
2018-03-14T05:16:45.611Z,26.1
2018-03-14T05:17:35.050Z,26
2018-03-14T05:18:24.481Z,25.8
2018-03-14T05:19:16.031Z,25.7
2018-03-14T05:20:04.458Z,25.6
2018-03-14T05:20:55.412Z,25.9
2018-03-14T05:21:45.936Z,26.8
2018-03-14T05:22:35.176Z,27.5
2018-03-14T05:23:25.485Z,28.2
2018-03-14T05:24:14.957Z,28.9
2018-03-14T05:25:05.446Z,29.5
2018-03-14T05:25:55.949Z,30.2
2018-03-14T05:26:46.415Z,30
2018-03-14T05:27:34.589Z,29.4
2018-03-14T05:28:25.538Z,29.1
2018-03-14T05:29:15.992Z,28.8
2018-03-14T05:30:07.664Z,28.6
2018-03-14T05:30:56.449Z,28.4
2018-03-14T05:31:46.671Z,28.1
2018-03-14T05:32:35.746Z,27.9
2018-03-14T05:33:26.148Z,27.8
2018-03-14T05:34:15.647Z,27.6
2018-03-14T05:35:06.004Z,27.4
2018-03-14T05:35:55.859Z,27.2
2018-03-14T05:36:46.468Z,27
2018-03-14T05:37:37.066Z,26.9
2018-03-14T05:38:26.545Z,26.8
2018-03-14T05:39:16.511Z,26.6
2018-03-14T05:40:06.444Z,26.4
2018-03-14T05:40:57.543Z,26.3
2018-03-14T05:41:47.855Z,26.1
2018-03-14T05:42:37.206Z,25.9
2018-03-14T05:43:25.813Z,25.8
2018-03-14T05:44:17.180Z,25.6
2018-03-14T05:45:07.407Z,25.6
2018-03-14T05:45:57.540Z,25.9
2018-03-14T05:46:47.522Z,26.8
2018-03-14T05:47:36.467Z,27.6
2018-03-14T05:48:27.536Z,28.3
2018-03-14T05:49:17.300Z,28.9
2018-03-14T05:50:07.410Z,29.6
2018-03-14T05:50:57.715Z,30.3
2018-03-14T05:51:48.669Z,30.2
2018-03-14T05:52:36.347Z,29.6
2018-03-14T05:53:27.966Z,29.3
2018-03-14T05:54:18.746Z,28.9
2018-03-14T05:55:07.514Z,28.6
2018-03-14T05:55:57.760Z,28.4
2018-03-14T05:56:47.637Z,28.3
2018-03-14T05:57:38.559Z,28
2018-03-14T05:58:29.025Z,27.9
2018-03-14T05:59:18.994Z,27.7
2018-03-14T06:00:08.732Z,27.5
2018-03-14T06:00:57.835Z,27.3
2018-03-14T06:01:48.395Z,27.1
2018-03-14T06:02:39.452Z,26.9
2018-03-14T06:03:28.811Z,26.8
2018-03-14T06:04:19.223Z,26.6
2018-03-14T06:05:08.577Z,26.4
2018-03-14T06:05:57.827Z,26.3
2018-03-14T06:06:48.474Z,26.1
2018-03-14T06:07:39.567Z,25.9
2018-03-14T06:08:29.793Z,25.8
2018-03-14T06:09:18.469Z,25.7
2018-03-14T06:10:08.724Z,25.5
2018-03-14T06:10:58.129Z,25.7
2018-03-14T06:11:48.817Z,26.6
2018-03-14T06:12:39.276Z,27.4
2018-03-14T06:13:28.936Z,28.1
2018-03-14T06:14:19.265Z,28.8
2018-03-14T06:15:08.383Z,29.5
2018-03-14T06:15:58.322Z,30.1
2018-03-14T06:16:50.322Z,30.3
2018-03-14T06:17:40.216Z,29.7
2018-03-14T06:18:29.455Z,29.3
2018-03-14T06:19:19.508Z,28.9
2018-03-14T06:20:09.911Z,28.7
2018-03-14T06:20:59.557Z,28.4
2018-03-14T06:21:49.838Z,28.3
2018-03-14T06:22:38.985Z,28.1
2018-03-14T06:23:29.621Z,27.9
2018-03-14T06:24:20.073Z,27.6
2018-03-14T06:25:09.689Z,27.4
2018-03-14T06:25:59.816Z,27.3
2018-03-14T06:26:50.958Z,27.1
2018-03-14T06:27:41.400Z,26.9
2018-03-14T06:28:30.703Z,26.8
2018-03-14T06:29:20.353Z,26.6
2018-03-14T06:30:10.494Z,26.4
2018-03-14T06:31:00.943Z,26.3
2018-03-14T06:31:50.348Z,26.1
2018-03-14T06:32:41.013Z,25.9
2018-03-14T06:33:29.985Z,25.8
2018-03-14T06:34:19.925Z,25.6
2018-03-14T06:35:10.383Z,25.5
2018-03-14T06:36:01.021Z,25.6
2018-03-14T06:36:50.762Z,26.5
2018-03-14T06:37:40.856Z,27.3
2018-03-14T06:38:30.798Z,28.1
2018-03-14T06:39:22.140Z,28.8
2018-03-14T06:40:10.750Z,29.4
2018-03-14T06:41:02.342Z,30.1
2018-03-14T06:41:51.130Z,30.1
2018-03-14T06:42:40.493Z,29.6
2018-03-14T06:43:31.290Z,29.2
2018-03-14T06:44:21.285Z,28.9
2018-03-14T06:45:11.635Z,28.6
2018-03-14T06:46:01.595Z,28.4
2018-03-14T06:46:51.020Z,28.2
2018-03-14T06:47:41.772Z,28
2018-03-14T06:49:21.764Z,27.6
2018-03-14T06:50:11.849Z,27.4
2018-03-14T06:51:02.435Z,27.3
2018-03-14T06:51:50.979Z,27.1
2018-03-14T06:52:40.085Z,26.9
2018-03-14T06:53:33.509Z,26.8
2018-03-14T06:54:22.842Z,26.6
2018-03-14T06:55:12.471Z,26.4
2018-03-14T06:56:02.429Z,26.3
2018-03-14T06:56:53.103Z,26.1
2018-03-14T06:57:42.781Z,25.9
2018-03-14T06:58:32.153Z,25.8
2018-03-14T06:59:21.827Z,25.6
2018-03-14T07:00:12.652Z,25.6
2018-03-14T07:01:03.308Z,25.8
2018-03-14T07:01:52.378Z,26.8
2018-03-14T07:02:42.141Z,27.5
2018-03-14T07:03:33.764Z,28.3
2018-03-14T07:04:22.869Z,29
2018-03-14T07:05:14.408Z,29.7
2018-03-14T07:06:04.713Z,30.4
2018-03-14T07:06:54.415Z,29.9
2018-03-14T07:07:44.824Z,29.4
2018-03-14T07:08:34.526Z,29.1
2018-03-14T07:09:24.320Z,28.8
2018-03-14T07:10:14.917Z,28.6
2018-03-14T07:11:04.732Z,28.4
2018-03-14T07:11:54.729Z,28.1
2018-03-14T07:12:44.838Z,28
2018-03-14T07:13:34.923Z,27.8
2018-03-14T07:14:24.964Z,27.6
2018-03-14T07:15:14.732Z,27.4
2018-03-14T07:16:05.073Z,27.3
2018-03-14T07:16:55.710Z,27.1
2018-03-14T07:17:44.659Z,26.9
2018-03-14T07:18:35.280Z,26.8
2018-03-14T07:19:25.074Z,26.6
2018-03-14T07:20:15.665Z,26.4
2018-03-14T07:21:05.271Z,26.3
2018-03-14T07:21:56.062Z,26.1
2018-03-14T07:22:45.847Z,25.9
2018-03-14T07:23:33.938Z,25.8
2018-03-14T07:24:25.438Z,25.6
2018-03-14T07:25:15.209Z,25.4
2018-03-14T07:26:06.378Z,25.3
2018-03-14T07:26:56.147Z,25.1
2018-03-14T07:27:45.703Z,25.2
2018-03-14T07:28:36.413Z,25.9
2018-03-14T07:29:26.024Z,26.8
2018-03-14T07:30:15.608Z,27.6
2018-03-14T07:31:06.684Z,28.3
2018-03-14T07:31:56.522Z,29.1
2018-03-14T07:32:46.814Z,29.8
2018-03-14T07:33:36.304Z,30.4
2018-03-14T07:34:26.987Z,29.9
2018-03-14T07:35:15.982Z,29.4
2018-03-14T07:36:06.761Z,29.1
2018-03-14T07:36:57.188Z,28.8
2018-03-14T07:37:46.620Z,28.6
2018-03-14T07:38:37.262Z,28.4
2018-03-14T07:39:26.097Z,28.2
2018-03-14T07:40:16.319Z,28
2018-03-14T07:41:55.917Z,27.7
2018-03-14T07:42:46.108Z,27.5
2018-03-14T07:43:35.160Z,27.3
2018-03-14T07:44:26.580Z,27.1
2018-03-14T07:45:14.655Z,26.9
2018-03-14T07:46:06.201Z,26.8
2018-03-14T07:46:55.519Z,26.6
2018-03-14T07:47:46.261Z,26.4
2018-03-14T07:48:35.584Z,26.3
2018-03-14T07:49:26.205Z,26.1
2018-03-14T07:50:15.346Z,25.9
2018-03-14T07:51:06.570Z,25.8
2018-03-14T07:51:56.449Z,25.7
2018-03-14T07:52:46.063Z,25.5
2018-03-14T07:53:37.010Z,25.3
2018-03-14T07:54:26.708Z,25.2
2018-03-14T07:55:16.976Z,25.4
2018-03-14T07:56:05.834Z,26.3
2018-03-14T07:56:56.917Z,27.1
2018-03-14T07:57:46.359Z,27.9
2018-03-14T07:58:36.139Z,28.6
2018-03-14T07:59:27.399Z,29.3
2018-03-14T08:00:18.322Z,30.1
2018-03-14T08:01:06.629Z,30.1
2018-03-14T08:01:56.717Z,29.6
2018-03-14T08:02:46.986Z,29.2
2018-03-14T08:03:37.754Z,28.9
2018-03-14T08:04:27.473Z,28.7
2018-03-14T08:05:17.012Z,28.4
2018-03-14T08:06:07.699Z,28.3
2018-03-14T08:06:57.024Z,28
2018-03-14T08:08:36.576Z,27.7
2018-03-14T08:09:27.186Z,27.5
2018-03-14T08:10:16.876Z,27.3
2018-03-14T08:11:07.233Z,27.1
2018-03-14T08:11:57.663Z,26.9
2018-03-14T08:12:47.893Z,26.8
2018-03-14T08:13:41.722Z,26.6
2018-03-14T08:14:28.948Z,26.5
2018-03-14T08:15:19.581Z,26.3
2018-03-14T08:16:09.922Z,26.1
2018-03-14T08:16:59.750Z,26
2018-03-14T08:17:49.773Z,25.8
2018-03-14T08:18:39.253Z,25.7
2018-03-14T08:19:29.908Z,25.5
2018-03-14T08:20:20.213Z,25.4
2018-03-14T08:21:10.287Z,25.2
2018-03-14T08:22:00.032Z,25.4
2018-03-14T08:22:49.517Z,26.1
2018-03-14T08:23:40.172Z,27.1
2018-03-14T08:25:20.053Z,28.6
2018-03-14T08:26:10.497Z,29.3
2018-03-14T08:27:00.377Z,30
2018-03-14T08:27:50.825Z,30.4
2018-03-14T08:28:40.288Z,29.8
2018-03-14T08:29:30.639Z,29.4
2018-03-14T08:30:18.999Z,29.1
2018-03-14T08:31:10.970Z,28.8
2018-03-14T08:32:00.033Z,28.6
2018-03-14T08:32:50.552Z,28.4
2018-03-14T08:33:41.177Z,28.2
2018-03-14T08:34:29.837Z,28
2018-03-14T08:36:11.344Z,27.6
2018-03-14T08:37:01.151Z,27.4
2018-03-14T08:37:51.475Z,27.3
2018-03-14T08:38:40.427Z,27.1
2018-03-14T08:39:30.576Z,26.9
2018-03-14T08:40:21.354Z,26.8
2018-03-14T08:41:10.312Z,26.6
2018-03-14T08:42:01.507Z,26.4
2018-03-14T08:42:51.267Z,26.3
2018-03-14T08:43:41.411Z,26.1
2018-03-14T08:44:31.974Z,25.9
2018-03-14T08:45:20.893Z,25.8
2018-03-14T08:46:12.074Z,25.6
2018-03-14T08:47:01.759Z,25.4
2018-03-14T08:47:51.083Z,25.3
2018-03-14T08:48:40.731Z,25.3
2018-03-14T08:49:32.090Z,25.7
2018-03-14T08:50:22.187Z,26.6
2018-03-14T08:51:11.742Z,27.4
2018-03-14T08:52:01.422Z,28.2
2018-03-14T08:52:52.275Z,28.9
2018-03-14T08:53:42.003Z,29.6
2018-03-14T08:54:32.503Z,30.3
2018-03-14T08:55:22.445Z,29.9
2018-03-14T08:56:12.246Z,29.4
2018-03-14T08:57:01.498Z,29.1
2018-03-14T08:57:52.390Z,28.8
2018-03-14T08:58:41.826Z,28.6
2018-03-14T08:59:32.472Z,28.4
2018-03-14T09:00:22.391Z,28.2
2018-03-14T09:01:11.851Z,28
2018-03-14T09:02:52.188Z,27.6
2018-03-14T09:03:41.924Z,27.4
2018-03-14T09:04:31.732Z,27.3
2018-03-14T09:05:22.675Z,27.1
2018-03-14T09:06:12.977Z,26.9
2018-03-14T09:07:03.295Z,26.8
2018-03-14T09:07:52.797Z,26.6
2018-03-14T09:08:42.922Z,26.4
2018-03-14T09:09:33.536Z,26.3
2018-03-14T09:10:22.160Z,26.1
2018-03-14T09:11:12.973Z,25.9
2018-03-14T09:12:03.682Z,25.8
2018-03-14T09:12:53.164Z,25.7
2018-03-14T09:13:42.265Z,25.6
2018-03-14T09:14:32.005Z,25.4
2018-03-14T09:15:22.936Z,25.5
2018-03-14T09:16:11.011Z,26.1
2018-03-14T09:17:02.169Z,27
2018-03-14T09:18:42.858Z,28.6
2018-03-14T09:19:31.851Z,29.4
2018-03-14T09:20:22.978Z,30.1
2018-03-14T09:21:14.069Z,30.4
2018-03-14T09:22:02.489Z,29.9
2018-03-14T09:22:52.180Z,29.5
2018-03-14T09:23:42.622Z,29.1
2018-03-14T09:24:33.555Z,28.9
2018-03-14T09:25:22.389Z,28.6
2018-03-14T09:26:13.284Z,28.4
2018-03-14T09:27:03.368Z,28.3
2018-03-14T09:27:53.499Z,28.1
2018-03-14T09:28:44.559Z,27.9
2018-03-14T09:29:34.000Z,27.7
2018-03-14T09:30:23.160Z,27.5
2018-03-14T09:31:12.687Z,27.4
2018-03-14T09:32:02.758Z,27.2
2018-03-14T09:32:52.188Z,27
2018-03-14T09:33:42.849Z,26.8
2018-03-14T09:34:34.858Z,26.6
2018-03-14T09:35:23.103Z,26.4
2018-03-14T09:36:13.761Z,26.3
2018-03-14T09:37:03.919Z,26.1
2018-03-14T09:37:54.749Z,26
2018-03-14T09:38:43.324Z,25.9
2018-03-14T09:39:33.273Z,25.7
2018-03-14T09:40:24.268Z,25.6
2018-03-14T09:41:14.450Z,25.4
2018-03-14T09:42:04.756Z,25.5
2018-03-14T09:42:54.613Z,26.1
2018-03-14T09:43:44.553Z,27
2018-03-14T09:45:24.729Z,28.6
2018-03-14T09:46:14.698Z,29.3
2018-03-14T09:47:04.795Z,29.9
2018-03-14T09:47:55.658Z,30.3
2018-03-14T09:48:45.350Z,29.8
2018-03-14T09:49:34.940Z,29.3
2018-03-14T09:50:24.265Z,29
2018-03-14T09:51:14.420Z,28.8
2018-03-14T09:52:05.511Z,28.5
2018-03-14T09:52:54.554Z,28.3
2018-03-14T09:53:45.208Z,28.1
2018-03-14T09:54:34.355Z,27.9
2018-03-14T09:56:15.952Z,27.6
2018-03-14T09:57:06.550Z,27.4
2018-03-14T09:57:54.507Z,27.3
2018-03-14T09:58:45.613Z,27.1
2018-03-14T09:59:34.837Z,26.9
2018-03-14T10:00:25.656Z,26.7
2018-03-14T10:01:15.930Z,26.6
2018-03-14T10:02:05.489Z,26.4
2018-03-14T10:02:55.163Z,26.3
2018-03-14T10:03:45.415Z,26.1
2018-03-14T10:04:35.873Z,25.9
2018-03-14T10:05:25.412Z,25.8
2018-03-14T10:06:17.388Z,25.6
2018-03-14T10:07:05.521Z,25.5
2018-03-14T10:07:56.578Z,25.4
2018-03-14T10:08:46.263Z,25.4
2018-03-14T10:09:36.518Z,26.3
2018-03-14T10:10:26.396Z,27.2
2018-03-14T10:11:16.436Z,28.1
2018-03-14T10:12:06.314Z,28.8
2018-03-14T10:12:56.101Z,29.6
2018-03-14T10:13:47.098Z,30.4
2018-03-14T10:14:37.368Z,30.1
2018-03-14T10:15:26.496Z,29.7
2018-03-14T10:16:16.200Z,29.3
2018-03-14T10:17:07.076Z,29
2018-03-14T10:17:56.760Z,28.8
2018-03-14T10:18:46.706Z,28.6
2018-03-14T10:19:36.548Z,28.3
2018-03-14T10:20:26.885Z,28.1
2018-03-14T10:21:17.187Z,27.9
2018-03-14T10:22:06.651Z,27.8
2018-03-14T10:22:56.829Z,27.6
2018-03-14T10:23:47.358Z,27.4
2018-03-14T10:24:37.595Z,27.2
2018-03-14T10:25:27.006Z,27.1
2018-03-14T10:26:17.831Z,26.9
2018-03-14T10:27:06.828Z,26.7
2018-03-14T10:27:57.535Z,26.6
2018-03-14T10:28:48.420Z,26.4
2018-03-14T10:29:38.159Z,26.3
2018-03-14T10:30:27.319Z,26.1
2018-03-14T10:31:18.125Z,25.9
2018-03-14T10:32:08.468Z,25.8
2018-03-14T10:32:58.805Z,25.6
2018-03-14T10:33:47.507Z,25.5
2018-03-14T10:34:37.655Z,25.4
2018-03-14T10:35:28.322Z,25.8
2018-03-14T10:36:17.997Z,26.8
2018-03-14T10:37:09.107Z,27.7
2018-03-14T10:37:58.387Z,28.5
2018-03-14T10:38:48.866Z,29.3
2018-03-14T10:39:38.078Z,30
2018-03-14T10:40:27.465Z,30.6
2018-03-14T10:41:19.688Z,30.1
2018-03-14T10:42:08.792Z,29.6
2018-03-14T10:42:58.251Z,29.3
2018-03-14T10:43:47.726Z,29
2018-03-14T10:44:39.280Z,28.8
2018-03-14T10:45:29.349Z,28.6
2018-03-14T10:46:18.076Z,28.4
2018-03-14T10:47:08.469Z,28.2
2018-03-14T10:47:59.370Z,28
2018-03-14T10:49:38.939Z,27.6
2018-03-14T10:50:28.414Z,27.4
2018-03-14T10:51:18.808Z,27.3
2018-03-14T10:52:09.603Z,27.1
2018-03-14T10:53:00.252Z,26.9
2018-03-14T10:53:48.643Z,26.8
2018-03-14T10:54:40.676Z,26.6
2018-03-14T10:55:29.357Z,26.4
2018-03-14T10:56:20.206Z,26.3
2018-03-14T10:57:09.116Z,26.1
2018-03-14T10:57:59.746Z,26
2018-03-14T10:58:50.606Z,25.8
2018-03-14T10:59:40.547Z,25.7
2018-03-14T11:00:30.265Z,25.6
2018-03-14T11:01:20.078Z,25.4
2018-03-14T11:02:09.753Z,25.6
2018-03-14T11:02:59.870Z,26.3
2018-03-14T11:03:49.666Z,27.3
2018-03-14T11:04:40.488Z,28.2
2018-03-14T11:05:30.492Z,29
2018-03-14T11:06:19.666Z,29.8
2018-03-14T11:07:09.931Z,30.5
2018-03-14T11:08:00.812Z,30.1
2018-03-14T11:08:50.397Z,29.6
2018-03-14T11:09:39.520Z,29.3
2018-03-14T11:10:30.412Z,28.9
2018-03-14T11:11:20.605Z,28.7
2018-03-14T11:12:11.087Z,28.4
2018-03-14T11:13:01.453Z,28.3
2018-03-14T11:13:50.859Z,28.1
2018-03-14T11:14:40.752Z,27.9
2018-03-14T11:15:30.533Z,27.7
2018-03-14T11:16:21.085Z,27.5
2018-03-14T11:17:10.407Z,27.3
2018-03-14T11:18:01.767Z,27.1
2018-03-14T11:18:51.965Z,27
2018-03-14T11:19:40.618Z,26.8
2018-03-14T11:20:30.597Z,26.7
2018-03-14T11:21:21.609Z,26.6
2018-03-14T11:22:11.482Z,26.4
2018-03-14T11:23:01.162Z,26.3